Time;durP1;ratioP1;P1;durP2;ratioP2;P2;SDS_P1;SDS_P2;PMS_P1;PMS_P2;Temp;Humidity;BMP_temperature;BMP_pressure;BME280_temperature;BME280_humidity;BME280_pressure;Samples;Min_cycle;Max_cycle;Signal;HPM_P1;HPM_P2
2021/03/06 00:01:11;;;;;;;16.80;9.02;;;;;;;;;;5013557;28;20121;-64
2021/03/06 00:03:56;;;;;;;18.77;8.65;;;;;;;;;;5013604;28;20050;-64
2021/03/06 00:06:42;;;;;;;14.20;7.90;;;;;;;;;;5011157;28;20578;-64
2021/03/06 00:09:27;;;;;;;20.55;9.18;;;;;;;;;;4993728;28;20124;-64
2021/03/06 00:12:12;;;;;;;14.98;7.70;;;;;;;;;;4979310;28;20046;-64
2021/03/06 00:14:57;;;;;;;15.95;7.57;;;;;;;;;;4994641;28;20050;-64
2021/03/06 00:17:43;;;;;;;6.88;4.60;;;;;;;;;;5003957;28;20409;-66
2021/03/06 00:20:28;;;;;;;12.13;6.88;;;;;;;;;;5013191;28;20417;-66
2021/03/06 00:23:14;;;;;;;14.20;5.57;;;;;;;;;;5013102;28;20081;-66
2021/03/06 00:25:59;;;;;;;16.17;7.00;;;;;;;;;;4994828;28;20054;-66
2021/03/06 00:28:44;;;;;;;15.95;5.53;;;;;;;;;;5007042;28;20049;-66
2021/03/06 00:31:30;;;;;;;16.13;5.15;;;;;;;;;;5013015;28;20494;-64
2021/03/06 00:34:15;;;;;;;12.38;5.13;;;;;;;;;;5012520;28;20161;-64
2021/03/06 00:37:01;;;;;;;10.88;5.43;;;;;;;;;;5013049;28;20136;-66
2021/03/06 00:39:46;;;;;;;20.02;6.07;;;;;;;;;;5012549;28;20506;-66
2021/03/06 00:42:32;;;;;;;10.25;5.32;;;;;;;;;;5013111;28;20124;-66
2021/03/06 00:45:18;;;;;;;5.40;3.92;;;;;;;;;;4991788;28;20140;-66
2021/03/06 00:48:03;;;;;;;9.02;3.55;;;;;;;;;;4993112;28;20461;-64
2021/03/06 00:50:49;;;;;;;6.53;3.53;;;;;;;;;;4993299;28;20059;-64
2021/03/06 00:53:35;;;;;;;6.82;3.30;;;;;;;;;;4993091;28;20046;-64
2021/03/06 00:56:20;;;;;;;12.38;4.95;;;;;;;;;;4989626;28;20176;-64
2021/03/06 00:59:06;;;;;;;8.07;3.90;;;;;;;;;;4997715;28;20046;-64
2021/03/06 01:01:52;;;;;;;8.75;4.20;;;;;;;;;;4997665;28;20120;-65
2021/03/06 01:04:38;;;;;;;9.73;4.68;;;;;;;;;;4997422;28;20046;-64
2021/03/06 01:07:23;;;;;;;15.32;4.80;;;;;;;;;;4994903;28;20129;-64
2021/03/06 01:10:16;;;;;;;12.23;4.90;;;;;;;;;;4992523;28;20038;-66
2021/03/06 01:13:01;;;;;;;16.70;4.90;;;;;;;;;;4992722;28;20108;-66
2021/03/06 01:15:47;;;;;;;12.73;5.40;;;;;;;;;;4993848;28;20043;-66
2021/03/06 01:18:32;;;;;;;13.38;5.80;;;;;;;;;;5012152;28;20057;-66
2021/03/06 01:21:18;;;;;;;19.48;6.15;;;;;;;;;;5012167;28;20052;-66
2021/03/06 01:24:03;;;;;;;14.23;6.47;;;;;;;;;;5012446;28;20426;-65
2021/03/06 01:26:49;;;;;;;16.30;7.05;;;;;;;;;;5010717;28;20655;-65
2021/03/06 01:29:35;;;;;;;19.17;6.28;;;;;;;;;;5012141;28;20050;-66
2021/03/06 01:32:20;;;;;;;16.88;6.80;;;;;;;;;;5012394;28;20054;-65
2021/03/06 01:35:07;;;;;;;19.52;7.40;;;;;;;;;;4997412;28;20501;-66
2021/03/06 01:37:54;;;;;;;14.55;7.22;;;;;;;;;;4994012;28;20561;-65
2021/03/06 01:40:40;;;;;;;17.52;7.90;;;;;;;;;;5006798;28;20502;-65
2021/03/06 01:43:25;;;;;;;20.83;7.90;;;;;;;;;;5004437;28;20521;-66
2021/03/06 01:46:11;;;;;;;12.45;5.22;;;;;;;;;;4993329;28;20042;-65
2021/03/06 01:48:56;;;;;;;15.02;8.43;;;;;;;;;;5011792;28;20046;-65
2021/03/06 01:51:41;;;;;;;17.70;9.15;;;;;;;;;;5012018;28;20501;-65
2021/03/06 01:54:27;;;;;;;12.77;7.22;;;;;;;;;;5012176;28;20049;-64
2021/03/06 01:57:13;;;;;;;16.42;6.97;;;;;;;;;;4996883;28;20053;-64
2021/03/06 01:59:58;;;;;;;12.25;6.45;;;;;;;;;;5011830;28;20164;-66
2021/03/06 02:02:44;;;;;;;11.23;6.60;;;;;;;;;;4997373;28;20072;-66
2021/03/06 02:05:29;;;;;;;14.00;7.30;;;;;;;;;;5011900;28;20056;-66
2021/03/06 02:08:15;;;;;;;13.90;6.63;;;;;;;;;;4999008;28;20042;-66
2021/03/06 02:11:00;;;;;;;16.10;7.88;;;;;;;;;;4992236;28;20057;-66
2021/03/06 02:14:00;;;;;;;14.65;6.85;;;;;;;;;;4992142;28;20049;-65
2021/03/06 02:16:49;;;;;;;15.35;6.53;;;;;;;;;;4977831;28;20053;-64
2021/03/06 02:19:54;;;;;;;14.32;7.82;;;;;;;;;;4977514;28;20042;-65
2021/03/06 02:22:44;;;;;;;19.45;7.65;;;;;;;;;;4994349;28;20054;-65
2021/03/06 02:25:33;;;;;;;12.45;5.88;;;;;;;;;;4981309;28;20054;-65
2021/03/06 02:28:37;;;;;;;12.50;6.15;;;;;;;;;;5002532;28;20056;-65
2021/03/06 02:31:23;;;;;;;15.90;7.20;;;;;;;;;;5000802;28;20510;-65
2021/03/06 02:34:14;;;;;;;12.63;6.60;;;;;;;;;;5000552;28;20049;-64
2021/03/06 02:37:00;;;;;;;14.20;7.05;;;;;;;;;;5015245;28;20042;-65
2021/03/06 02:39:46;;;;;;;14.02;6.68;;;;;;;;;;4983937;28;20050;-66
2021/03/06 02:42:32;;;;;;;14.02;6.90;;;;;;;;;;4995333;28;20054;-65
2021/03/06 02:45:17;;;;;;;13.82;7.53;;;;;;;;;;4981004;28;20050;-65
2021/03/06 02:48:03;;;;;;;12.10;6.57;;;;;;;;;;4995241;28;20050;-66
2021/03/06 02:50:53;;;;;;;12.45;5.53;;;;;;;;;;4980759;28;20421;-65
2021/03/06 02:53:38;;;;;;;16.88;7.68;;;;;;;;;;4995335;28;20065;-65
2021/03/06 02:56:23;;;;;;;17.42;7.18;;;;;;;;;;4995292;28;20057;-65
2021/03/06 02:59:27;;;;;;;11.63;6.45;;;;;;;;;;4999831;28;20489;-65
2021/03/06 03:02:25;;;;;;;15.80;7.97;;;;;;;;;;5014617;28;20046;-66
2021/03/06 03:05:18;;;;;;;10.65;6.38;;;;;;;;;;5014510;28;20053;-65
2021/03/06 03:08:06;;;;;;;18.10;6.25;;;;;;;;;;4999220;28;20494;-64
2021/03/06 03:10:53;;;;;;;11.90;6.35;;;;;;;;;;4998237;28;20494;-65
2021/03/06 03:13:48;;;;;;;13.95;7.20;;;;;;;;;;5014700;28;20121;-65
2021/03/06 03:16:42;;;;;;;14.13;6.35;;;;;;;;;;4999749;28;20116;-65
2021/03/06 03:19:31;;;;;;;13.73;6.90;;;;;;;;;;4997040;28;20050;-66
2021/03/06 03:22:17;;;;;;;13.70;6.30;;;;;;;;;;4980288;28;20074;-65
2021/03/06 03:25:02;;;;;;;12.27;6.10;;;;;;;;;;4980246;28;20038;-65
2021/03/06 03:27:47;;;;;;;15.35;6.15;;;;;;;;;;4994468;28;20477;-66
2021/03/06 03:30:32;;;;;;;16.73;5.70;;;;;;;;;;4988138;28;20050;-65
2021/03/06 03:33:17;;;;;;;9.70;5.28;;;;;;;;;;5014090;28;20042;-66
2021/03/06 03:36:03;;;;;;;15.18;6.00;;;;;;;;;;5014158;28;20410;-65
2021/03/06 03:38:49;;;;;;;18.73;6.78;;;;;;;;;;5013730;28;20054;-65
2021/03/06 03:41:34;;;;;;;18.33;6.20;;;;;;;;;;4985589;28;20042;-66
2021/03/06 03:44:20;;;;;;;18.90;6.68;;;;;;;;;;4979972;28;20054;-66
2021/03/06 03:47:07;;;;;;;16.88;5.97;;;;;;;;;;4979738;28;20050;-66
2021/03/06 03:49:52;;;;;;;12.68;6.22;;;;;;;;;;4994263;28;20046;-66
2021/03/06 03:52:38;;;;;;;13.25;6.13;;;;;;;;;;4980784;28;20081;-66
2021/03/06 03:55:23;;;;;;;13.88;6.47;;;;;;;;;;4994099;28;20483;-66
2021/03/06 03:58:11;;;;;;;10.15;5.30;;;;;;;;;;4993887;28;20054;-65
2021/03/06 04:01:00;;;;;;;17.25;6.72;;;;;;;;;;4982173;28;20042;-64
2021/03/06 04:03:45;;;;;;;9.82;5.22;;;;;;;;;;5013583;28;20052;-64
2021/03/06 04:06:30;;;;;;;12.32;5.35;;;;;;;;;;5013358;28;20503;-64
2021/03/06 04:09:16;;;;;;;9.93;4.97;;;;;;;;;;5013303;28;20049;-64
2021/03/06 04:12:01;;;;;;;9.65;4.70;;;;;;;;;;5004263;28;20046;-64
2021/03/06 04:14:46;;;;;;;9.23;4.70;;;;;;;;;;5002685;28;20128;-65
2021/03/06 04:17:32;;;;;;;10.77;5.68;;;;;;;;;;5011817;28;20053;-64
2021/03/06 04:20:17;;;;;;;13.55;5.43;;;;;;;;;;4998756;28;20046;-64
2021/03/06 04:23:03;;;;;;;15.73;6.45;;;;;;;;;;4997427;28;20129;-64
2021/03/06 04:25:48;;;;;;;10.43;5.38;;;;;;;;;;4993005;28;20042;-65
2021/03/06 04:28:34;;;;;;;14.90;5.45;;;;;;;;;;4993307;28;20558;-65
2021/03/06 04:31:19;;;;;;;11.18;5.20;;;;;;;;;;4993470;28;20082;-65
2021/03/06 04:34:04;;;;;;;9.15;5.93;;;;;;;;;;5013217;28;20113;-65
2021/03/06 04:36:50;;;;;;;15.05;6.80;;;;;;;;;;5013126;28;20038;-65
2021/03/06 04:39:35;;;;;;;16.13;5.57;;;;;;;;;;4997984;28;20041;-66
2021/03/06 04:42:21;;;;;;;10.82;4.78;;;;;;;;;;5009466;28;20446;-65
2021/03/06 04:45:06;;;;;;;15.02;6.53;;;;;;;;;;4992540;28;20141;-65
2021/03/06 04:47:52;;;;;;;11.38;4.60;;;;;;;;;;4992834;28;20042;-65
2021/03/06 04:50:37;;;;;;;10.25;5.00;;;;;;;;;;4993134;28;20475;-65
2021/03/06 04:53:22;;;;;;;12.68;5.75;;;;;;;;;;5001529;28;20050;-66
2021/03/06 04:56:08;;;;;;;11.88;4.70;;;;;;;;;;5012148;28;20053;-66
2021/03/06 04:58:53;;;;;;;13.23;5.00;;;;;;;;;;5012451;28;20041;-64
2021/03/06 05:01:39;;;;;;;12.85;5.22;;;;;;;;;;4997674;28;20561;-65
2021/03/06 05:04:24;;;;;;;13.48;5.50;;;;;;;;;;4998226;28;20046;-65
2021/03/06 05:07:09;;;;;;;10.77;4.85;;;;;;;;;;4992824;28;20561;-64
2021/03/06 05:09:54;;;;;;;11.85;5.13;;;;;;;;;;4992615;28;20554;-65
2021/03/06 05:12:40;;;;;;;11.32;5.10;;;;;;;;;;4992673;28;20502;-64
2021/03/06 05:15:25;;;;;;;9.52;4.60;;;;;;;;;;5012058;28;20081;-65
2021/03/06 05:18:11;;;;;;;7.95;4.65;;;;;;;;;;5012118;28;20073;-65
2021/03/06 05:20:56;;;;;;;11.18;4.38;;;;;;;;;;5012361;28;20073;-65
2021/03/06 05:23:41;;;;;;;11.15;4.95;;;;;;;;;;4996867;28;20034;-65
2021/03/06 05:26:26;;;;;;;12.90;5.45;;;;;;;;;;5012169;28;20414;-65
2021/03/06 05:29:12;;;;;;;9.88;5.40;;;;;;;;;;5009371;28;20033;-66
2021/03/06 05:31:57;;;;;;;10.23;5.20;;;;;;;;;;5010668;28;20506;-65
2021/03/06 05:34:43;;;;;;;7.22;3.83;;;;;;;;;;5000387;28;20107;-66
2021/03/06 05:37:28;;;;;;;9.95;4.13;;;;;;;;;;5012231;28;20054;-66
2021/03/06 05:40:13;;;;;;;10.88;3.72;;;;;;;;;;5012037;28;20434;-64
2021/03/06 05:43:00;;;;;;;10.23;4.43;;;;;;;;;;5012173;28;20096;-64
2021/03/06 05:45:46;;;;;;;12.63;4.30;;;;;;;;;;4991192;28;20414;-65
2021/03/06 05:48:31;;;;;;;12.85;4.25;;;;;;;;;;5011966;28;20124;-65
2021/03/06 05:51:16;;;;;;;7.20;3.38;;;;;;;;;;5012116;28;20046;-64
2021/03/06 05:54:03;;;;;;;10.25;3.75;;;;;;;;;;5011957;28;20038;-64
2021/03/06 05:56:49;;;;;;;11.55;4.80;;;;;;;;;;4999285;28;20278;-65
2021/03/06 05:59:34;;;;;;;8.65;4.75;;;;;;;;;;5015781;28;20042;-65
2021/03/06 06:02:19;;;;;;;10.82;4.10;;;;;;;;;;4993487;28;20520;-65
2021/03/06 06:05:05;;;;;;;6.20;4.60;;;;;;;;;;5015005;28;20096;-65
2021/03/06 06:07:50;;;;;;;12.65;4.45;;;;;;;;;;5028729;23;20144;-64
2021/03/06 06:10:35;;;;;;;12.82;4.00;;;;;;;;;;5040507;28;20041;-64
2021/03/06 06:13:20;;;;;;;10.10;3.50;;;;;;;;;;5055355;28;20419;-64
2021/03/06 06:16:06;;;;;;;8.18;2.88;;;;;;;;;;5055058;28;20111;-64
2021/03/06 06:18:51;;;;;;;7.93;2.97;;;;;;;;;;5040160;28;20076;-65
2021/03/06 06:21:49;;;;;;;9.70;3.08;;;;;;;;;;5055125;28;20049;-64
2021/03/06 06:24:34;;;;;;;12.55;3.83;;;;;;;;;;5055173;28;20099;-64
2021/03/06 06:27:29;;;;;;;7.10;3.15;;;;;;;;;;5055041;28;20060;-64
2021/03/06 06:30:15;;;;;;;8.30;2.15;;;;;;;;;;5055064;28;20048;-64
2021/03/06 06:33:01;;;;;;;6.20;3.17;;;;;;;;;;5040071;28;20095;-64
2021/03/06 06:35:46;;;;;;;8.77;3.00;;;;;;;;;;5055004;28;20514;-64
2021/03/06 06:38:41;;;;;;;7.40;3.42;;;;;;;;;;5054344;28;20076;-64
2021/03/06 06:41:26;;;;;;;9.45;3.35;;;;;;;;;;5054985;28;20048;-64
2021/03/06 06:44:12;;;;;;;6.82;3.00;;;;;;;;;;5053826;28;20037;-64
2021/03/06 06:46:58;;;;;;;14.55;3.58;;;;;;;;;;5054794;28;20042;-64
2021/03/06 06:49:53;;;;;;;9.30;3.80;;;;;;;;;;5054409;28;20045;-64
2021/03/06 06:52:39;;;;;;;7.50;3.35;;;;;;;;;;5054556;28;20052;-64
2021/03/06 06:55:37;;;;;;;8.15;3.10;;;;;;;;;;5054782;28;20049;-64
2021/03/06 06:58:34;;;;;;;7.03;3.00;;;;;;;;;;5054181;28;20037;-64
2021/03/06 07:01:32;;;;;;;9.25;3.03;;;;;;;;;;5044610;28;20544;-64
2021/03/06 07:04:18;;;;;;;7.18;3.08;;;;;;;;;;5048079;28;20060;-64
2021/03/06 07:07:03;;;;;;;10.10;3.45;;;;;;;;;;5049392;28;20041;-64
2021/03/06 07:10:02;;;;;;;11.45;2.67;;;;;;;;;;5034573;28;20068;-64
2021/03/06 07:12:57;;;;;;;7.20;2.60;;;;;;;;;;5034336;28;20074;-66
2021/03/06 07:15:43;;;;;;;6.88;4.15;;;;;;;;;;5038992;28;20071;-66
2021/03/06 07:18:28;;;;;;;8.52;2.42;;;;;;;;;;5042777;28;20419;-66
2021/03/06 07:21:14;;;;;;;8.68;2.00;;;;;;;;;;5054091;28;20052;-66
2021/03/06 07:23:59;;;;;;;11.10;2.22;;;;;;;;;;5054047;28;20041;-66
2021/03/06 07:26:44;;;;;;;6.82;2.28;;;;;;;;;;5039084;28;20690;-66
2021/03/06 07:29:30;;;;;;;4.90;2.65;;;;;;;;;;5053371;28;20041;-66
2021/03/06 07:32:15;;;;;;;10.35;3.42;;;;;;;;;;5053896;28;20045;-66
2021/03/06 07:35:02;;;;;;;2.88;1.65;;;;;;;;;;5039244;28;20080;-66
2021/03/06 07:37:47;;;;;;;4.28;1.80;;;;;;;;;;5038490;28;20045;-66
2021/03/06 07:40:32;;;;;;;5.65;2.05;;;;;;;;;;5053412;28;20049;-66
2021/03/06 07:43:27;;;;;;;4.90;2.05;;;;;;;;;;5038711;28;20488;-66
2021/03/06 07:46:12;;;;;;;6.45;2.13;;;;;;;;;;5045848;28;20041;-66
2021/03/06 07:48:58;;;;;;;7.35;2.30;;;;;;;;;;5053171;28;20045;-66
2021/03/06 07:51:44;;;;;;;12.10;3.03;;;;;;;;;;5053303;28;20116;-66
2021/03/06 07:54:29;;;;;;;6.03;1.45;;;;;;;;;;5053456;28;20045;-66
2021/03/06 07:57:14;;;;;;;9.70;1.80;;;;;;;;;;5041315;28;20490;-66
2021/03/06 07:59:59;;;;;;;7.00;1.70;;;;;;;;;;5053273;28;20048;-66
2021/03/06 08:02:45;;;;;;;10.10;1.73;;;;;;;;;;5023797;28;20041;-66
2021/03/06 08:05:44;;;;;;;5.75;1.58;;;;;;;;;;5033543;28;20045;-66
2021/03/06 08:08:35;;;;;;;6.68;2.63;;;;;;;;;;5032989;28;20404;-66
2021/03/06 08:11:24;;;;;;;5.65;1.88;;;;;;;;;;5033539;28;20045;-66
2021/03/06 08:14:27;;;;;;;5.75;1.55;;;;;;;;;;5033184;28;20049;-66
2021/03/06 08:17:12;;;;;;;;;;;;;;;;;;5044194;28;20400;-66
2021/03/06 08:19:57;;;;;;;5.18;1.55;;;;;;;;;;5052135;28;20019;-66
2021/03/06 08:22:42;;;;;;;5.63;1.52;;;;;;;;;;5052159;28;20045;-66
2021/03/06 08:25:28;;;;;;;4.97;1.70;;;;;;;;;;5038486;28;20045;-65
2021/03/06 08:28:23;;;;;;;2.72;1.45;;;;;;;;;;5049839;28;20041;-66
2021/03/06 08:31:26;;;;;;;6.65;1.85;;;;;;;;;;5054071;28;20072;-64
2021/03/06 08:34:27;;;;;;;5.38;1.90;;;;;;;;;;5053730;28;20045;-65
2021/03/06 08:37:15;;;;;;;3.60;1.50;;;;;;;;;;5052891;28;20060;-66
2021/03/06 08:40:07;;;;;;;4.05;1.30;;;;;;;;;;5053823;28;20523;-66
2021/03/06 08:42:52;;;;;;;3.53;1.27;;;;;;;;;;5054388;28;20041;-66
2021/03/06 08:45:37;;;;;;;3.25;0.93;;;;;;;;;;5053553;28;20413;-66
2021/03/06 08:48:24;;;;;;;4.25;0.85;;;;;;;;;;5053213;28;20087;-66
2021/03/06 08:51:10;;;;;;;3.22;1.50;;;;;;;;;;5053177;28;20045;-66
2021/03/06 08:53:59;;;;;;;1.88;0.70;;;;;;;;;;5031857;28;20064;-66
2021/03/06 08:56:44;;;;;;;2.05;0.57;;;;;;;;;;5043015;28;20045;-65
2021/03/06 08:59:39;;;;;;;2.70;0.90;;;;;;;;;;5041588;28;20046;-65
2021/03/06 09:02:28;;;;;;;2.80;1.00;;;;;;;;;;5045632;28;20416;-65
2021/03/06 09:05:14;;;;;;;3.45;1.13;;;;;;;;;;5045356;28;20606;-65
2021/03/06 09:08:00;;;;;;;3.40;1.00;;;;;;;;;;5044377;28;20037;-65
2021/03/06 09:10:45;;;;;;;5.13;1.70;;;;;;;;;;5042910;28;20083;-65
2021/03/06 09:13:31;;;;;;;2.33;0.80;;;;;;;;;;5033552;28;20092;-65
2021/03/06 09:16:16;;;;;;;4.78;1.13;;;;;;;;;;5043693;28;22172;-65
2021/03/06 09:19:01;;;;;;;4.72;1.10;;;;;;;;;;5026013;28;20065;-65
2021/03/06 09:21:54;;;;;;;3.15;0.88;;;;;;;;;;5043029;28;20045;-65
2021/03/06 09:24:45;;;;;;;3.33;0.85;;;;;;;;;;5031999;28;20054;-66
2021/03/06 09:27:31;;;;;;;3.72;1.35;;;;;;;;;;5051559;28;20044;-67
2021/03/06 09:30:27;;;;;;;4.38;1.05;;;;;;;;;;5042641;28;20041;-67
2021/03/06 09:33:22;;;;;;;7.70;1.45;;;;;;;;;;5062017;28;20044;-67
2021/03/06 09:36:17;;;;;;;3.67;1.38;;;;;;;;;;5050679;28;20037;-66
2021/03/06 09:39:04;;;;;;;4.15;1.27;;;;;;;;;;5044394;28;20045;-67
2021/03/06 09:41:49;;;;;;;3.80;1.42;;;;;;;;;;5059325;28;20056;-67
2021/03/06 09:44:35;;;;;;;7.82;2.22;;;;;;;;;;5040756;28;20045;-66
2021/03/06 09:47:26;;;;;;;4.30;1.35;;;;;;;;;;5054538;28;20049;-66
2021/03/06 09:50:13;;;;;;;9.90;1.60;;;;;;;;;;5032020;28;20041;-67
2021/03/06 09:52:58;;;;;;;3.80;1.27;;;;;;;;;;5043758;28;20041;-67
2021/03/06 09:55:44;;;;;;;4.63;1.60;;;;;;;;;;5042699;28;20045;-66
2021/03/06 09:58:29;;;;;;;4.30;1.80;;;;;;;;;;5033940;28;20521;-65
2021/03/06 10:01:15;;;;;;;5.00;1.38;;;;;;;;;;5031759;28;20077;-65
2021/03/06 12:19:13;;;;;;;4.50;1.13;;;;;;;;;;5117522;27;20370;-62
2021/03/06 12:21:59;;;;;;;2.97;0.85;;;;;;;;;;5109667;28;20518;-62
2021/03/06 12:24:46;;;;;;;3.08;0.75;;;;;;;;;;5106479;28;20036;-63
2021/03/06 12:27:31;;;;;;;1.48;0.77;;;;;;;;;;5106650;28;20417;-62
2021/03/06 12:30:17;;;;;;;2.35;0.82;;;;;;;;;;5107411;28;20055;-63
2021/03/06 12:33:02;;;;;;;2.33;1.17;;;;;;;;;;5100361;28;20048;-63
2021/03/06 12:35:48;;;;;;;3.88;0.75;;;;;;;;;;5109405;28;20417;-62
2021/03/06 12:38:33;;;;;;;1.95;0.70;;;;;;;;;;5092707;28;20044;-63
2021/03/06 12:41:18;;;;;;;3.65;0.80;;;;;;;;;;5089304;28;20409;-62
2021/03/06 12:44:04;;;;;;;2.80;0.75;;;;;;;;;;5089263;28;20040;-64
2021/03/06 12:46:49;;;;;;;3.47;0.80;;;;;;;;;;5089042;28;20036;-62
2021/03/06 12:49:35;;;;;;;1.60;0.77;;;;;;;;;;5088961;28;20127;-62
2021/03/06 12:52:21;;;;;;;4.95;1.40;;;;;;;;;;5089063;28;20040;-62
2021/03/06 12:55:06;;;;;;;3.95;0.90;;;;;;;;;;5088947;28;20071;-62
2021/03/06 12:57:51;;;;;;;5.78;1.00;;;;;;;;;;5092526;28;20436;-63
2021/03/06 13:00:37;;;;;;;5.70;0.90;;;;;;;;;;5109245;28;20072;-63
2021/03/06 13:03:22;;;;;;;2.03;1.10;;;;;;;;;;5108071;28;20044;-63
2021/03/06 13:06:07;;;;;;;2.63;1.00;;;;;;;;;;5109321;28;20044;-64
2021/03/06 13:08:53;;;;;;;3.80;1.30;;;;;;;;;;5098927;28;20044;-64
2021/03/06 13:11:38;;;;;;;3.78;0.50;;;;;;;;;;5088613;28;20123;-63
2021/03/06 13:14:23;;;;;;;2.22;1.00;;;;;;;;;;5088588;28;20398;-64
2021/03/06 13:17:08;;;;;;;2.55;0.90;;;;;;;;;;5088418;28;20051;-64
2021/03/06 13:19:54;;;;;;;5.93;0.90;;;;;;;;;;5103527;28;20498;-63
2021/03/06 13:22:40;;;;;;;2.85;0.85;;;;;;;;;;5108785;28;20040;-62
2021/03/06 13:25:25;;;;;;;6.43;1.02;;;;;;;;;;5108739;28;20040;-64
2021/03/06 13:28:10;;;;;;;3.28;1.20;;;;;;;;;;5108430;28;20413;-62
2021/03/06 13:30:56;;;;;;;4.75;1.23;;;;;;;;;;5074531;28;20486;-63
2021/03/06 13:33:41;;;;;;;3.00;1.13;;;;;;;;;;5074715;28;20505;-64
2021/03/06 13:36:26;;;;;;;4.75;1.88;;;;;;;;;;5074653;28;20052;-62
2021/03/06 13:39:12;;;;;;;3.60;1.58;;;;;;;;;;5077977;28;20039;-62
2021/03/06 13:41:57;;;;;;;3.42;1.25;;;;;;;;;;5094883;28;20048;-62
2021/03/06 13:44:42;;;;;;;4.30;0.93;;;;;;;;;;5094745;28;20044;-62
2021/03/06 13:47:28;;;;;;;3.75;1.02;;;;;;;;;;5094677;28;20409;-61
2021/03/06 13:50:13;;;;;;;2.75;1.20;;;;;;;;;;5088866;28;20055;-62
2021/03/06 13:53:01;;;;;;;5.75;1.55;;;;;;;;;;5089870;28;20056;-61
2021/03/06 13:55:47;;;;;;;2.75;1.00;;;;;;;;;;5088973;28;20056;-62
2021/03/06 13:58:32;;;;;;;5.15;2.28;;;;;;;;;;5092483;28;20036;-60
2021/03/06 14:01:18;;;;;;;4.47;1.58;;;;;;;;;;5091276;28;20044;-63
2021/03/06 14:04:03;;;;;;;4.57;2.17;;;;;;;;;;5094075;28;20044;-63
2021/03/06 14:06:49;;;;;;;4.07;1.70;;;;;;;;;;5094320;28;20553;-60
2021/03/06 14:09:34;;;;;;;4.97;1.55;;;;;;;;;;5093963;28;20489;-61
2021/03/06 14:12:20;;;;;;;3.90;1.25;;;;;;;;;;5073612;28;20048;-61
2021/03/06 14:15:06;;;;;;;5.93;1.30;;;;;;;;;;5073144;28;20048;-60
2021/03/06 14:17:52;;;;;;;5.78;1.50;;;;;;;;;;5073393;28;20037;-60
2021/03/06 14:20:37;;;;;;;3.55;1.70;;;;;;;;;;5077471;28;20600;-63
2021/03/06 14:23:23;;;;;;;4.35;1.42;;;;;;;;;;5090720;28;20386;-62
2021/03/06 14:26:08;;;;;;;3.88;1.40;;;;;;;;;;5092108;28;20048;-62
2021/03/06 14:28:53;;;;;;;4.25;1.17;;;;;;;;;;5092003;28;20044;-62
